METAR Data
IDs: Format: Raw Decoded Include TAF

Data at: 1152 UTC 23 Sep 2018

KDFI 231053Z AUTO 00000KT 6SM BR CLR 07/06 A3020 RMK AO2 SLP228 T00720056
KDFI 230953Z AUTO 00000KT 7SM CLR 07/06 A3020 RMK AO2 SLP229 T00720056
KDFI 230946Z AUTO 00000KT 6SM BR CLR 07/06 A3020 RMK AO2 T00720056
KDFI 230939Z AUTO 00000KT 2 1/2SM BR CLR 07/05 A3019 RMK AO2 T00720050
KDFI 230928Z AUTO 00000KT 3/4SM BR CLR 06/05 A3019 RMK AO2 T00610050
KDFI 230925Z AUTO 00000KT 2SM BR CLR 06/05 A3019 RMK AO2 T00610050
KDFI 230853Z AUTO 00000KT 5SM BR CLR 07/06 A3019 RMK AO2 SLP226 T00720056 56008
KDFI 230753Z AUTO 00000KT 7SM CLR 08/06 A3020 RMK AO2 SLP227 T00780061
KDFI 230653Z AUTO 00000KT 10SM CLR 08/06 A3020 RMK AO2 SLP229 T00830061
KDFI 230553Z AUTO 00000KT 10SM CLR 09/07 A3022 RMK AO2 SLP234 T00890067 10139 20083 58005
KDFI 230453Z AUTO 00000KT 9SM CLR 09/08 A3023 RMK AO2 SLP236 T00940078 401720089
KDFI 230353Z AUTO 00000KT 10SM CLR 09/07 A3023 RMK AO2 SLP239 T00940072
KDFI 230253Z AUTO 00000KT 10SM CLR 11/08 A3023 RMK AO2 SLP239 T01060078 52002
KDFI 230153Z AUTO 05003KT 10SM CLR 12/09 A3023 RMK AO2 SLP238 T01170089
KDFI 230053Z AUTO 00000KT 10SM CLR 13/09 A3023 RMK AO2 SLP238 T01280089
KDFI 222353Z AUTO 06004KT 10SM CLR 14/09 A3023 RMK AO2 SLP237 T01390094 10172 20139 58003
KDFI 222253Z AUTO 07004KT 10SM CLR 15/09 A3024 RMK AO2 SLP240 T01500094
KDFI 222153Z AUTO 06005KT 10SM CLR 16/09 A3023 RMK AO2 SLP238 T01610094
KDFI 222053Z AUTO 06006KT 10SM BKN035 17/09 A3024 RMK AO2 SLP239 T01670094 56021
KDFI 221953Z AUTO 06007KT 10SM BKN035 17/09 A3025 RMK AO2 SLP244 T01670094
KDFI 221853Z AUTO 07004KT 10SM BKN034 16/09 A3028 RMK AO2 SLP254 T01610094
KDFI 221753Z AUTO 11005KT 10SM FEW032 16/09 A3030 RMK AO2 SLP261 T01560094 10161 20106 58006
KDFI 221653Z AUTO 07007KT 10SM FEW030 15/09 A3031 RMK AO2 SLP264 T01500089
KDFI 221553Z AUTO 05007KT 10SM CLR 14/08 A3032 RMK AO2 SLP267 T01440083
KDFI 221453Z AUTO 04009KT 10SM CLR 13/08 A3032 RMK AO2 SLP266 T01330078 51006
KDFI 221353Z AUTO 04009KT 10SM SCT029 12/07 A3032 RMK AO2 SLP265 T01220072
KDFI 221327Z AUTO 04008KT 10SM SCT029 12/08 A3032 RMK AO2 T01170078
KDFI 221306Z AUTO 02008KT 10SM BKN029 11/07 A3031 RMK AO2 T01110072
KDFI 221253Z AUTO 02008KT 10SM FEW029 11/07 A3031 RMK AO2 SLP262 T01110072
KDFI 221153Z AUTO 01006KT 10SM CLR 11/07 A3030 RMK AO2 SLP260 70001 T01060072 10139 20106 53018
KDFI 221053Z AUTO 01007KT 10SM CLR 11/07 A3028 RMK AO2 SLP251 T01060067
KDFI 220953Z AUTO 01009KT 10SM CLR 12/07 A3027 RMK AO2 SLP247 T01170072
KDFI 220853Z AUTO 03009KT 10SM OVC033 13/08 A3025 RMK AO2 SLP240 T01280083 51015
KDFI 220800Z AUTO 01010G17KT 10SM FEW027 BKN034 13/09 A3024 RMK AO2 T01330094
KDFI 220753Z AUTO 04006KT 10SM BKN026 BKN032 13/11 A3024 RMK AO2 SLP237 T01330106
KDFI 220718Z AUTO 36007KT 10SM BKN029 OVC034 14/11 A3023 RMK AO2 T01390106
KDFI 220653Z AUTO 00000KT 10SM SCT030 13/11 A3022 RMK AO2 SLP230 T01280106
KDFI 220553Z AUTO 32003KT 10SM CLR 14/11 A3020 RMK AO2 SLP225 60000 T01390106 10222 20139 51018
KDFI 220453Z AUTO 31005KT 10SM CLR 14/11 A3019 RMK AO2 RAE0358 SLP219 P0000 T01390106 402940139
KDFI 220353Z AUTO 33008KT 10SM -RA CLR 16/11 A3017 RMK AO2 SLP212 P0000 T01560111
KDFI 220253Z AUTO 33014KT 10SM -RA CLR 17/11 A3015 RMK AO2 SLP205 P0000 60000 T01720106 51044
KDFI 220153Z AUTO 34014G22KT 10SM -RA CLR 19/13 A3011 RMK AO2 SLP192 P0000 T01890128
KDFI 220053Z AUTO 31010G21KT 10SM -RA CLR 20/12 A3008 RMK AO2 SLP180 P0000 T02000117
KDFI 212353Z AUTO 32014G26KT 10SM -RA FEW055 22/13 A3002 RMK AO2 PK WND 31026/2350 RAB14 PRESRR SLP160 P0000 60001 T02220128 10283 20222 53037